createdAt,value
2022-07-30T00:04:54.634Z,4.38
2022-07-30T00:09:58.354Z,4.68
2022-07-30T00:15:02.099Z,4.65
2022-07-30T00:20:09.382Z,5.63
2022-07-30T00:25:16.363Z,4.30
2022-07-30T00:30:20.232Z,4.40
2022-07-30T00:35:25.220Z,5.00
2022-07-30T00:40:32.618Z,4.55
2022-07-30T00:45:37.488Z,4.80
2022-07-30T00:50:42.954Z,4.88
2022-07-30T00:55:49.356Z,5.20
2022-07-30T01:00:53.501Z,4.70
2022-07-30T01:05:58.667Z,5.45
2022-07-30T01:11:03.265Z,5.53
2022-07-30T01:16:07.337Z,5.40
2022-07-30T01:21:16.764Z,5.05
2022-07-30T01:26:23.614Z,5.88
2022-07-30T01:31:29.281Z,5.93
2022-07-30T01:36:33.829Z,5.10
2022-07-30T01:41:40.789Z,5.35
2022-07-30T01:46:45.375Z,4.90
2022-07-30T01:51:49.996Z,4.70
2022-07-30T01:56:57.886Z,4.73
2022-07-30T02:02:03.257Z,4.32
2022-07-30T02:07:15.868Z,5.00
2022-07-30T02:12:30.091Z,4.80
2022-07-30T02:17:44.307Z,4.15
2022-07-30T02:22:50.255Z,5.13
2022-07-30T02:27:59.232Z,4.80
2022-07-30T02:33:06.763Z,4.72
2022-07-30T02:38:13.079Z,4.70
2022-07-30T02:43:20.851Z,4.68
2022-07-30T02:48:34.641Z,5.10
2022-07-30T02:53:42.152Z,4.53
2022-07-30T02:58:48.240Z,5.10
2022-07-30T03:03:53.935Z,4.85
2022-07-30T03:08:58.440Z,4.97
2022-07-30T03:14:03.928Z,5.77
2022-07-30T03:19:10.120Z,5.10
2022-07-30T03:24:17.438Z,4.97
2022-07-30T03:29:25.807Z,4.88
2022-07-30T03:34:30.619Z,5.10
2022-07-30T03:39:36.362Z,5.13
2022-07-30T03:44:45.846Z,6.53
2022-07-30T03:49:50.315Z,5.00
2022-07-30T03:54:54.466Z,5.43
2022-07-30T04:00:18.480Z,5.50
2022-07-30T04:05:27.391Z,4.65
2022-07-30T04:10:42.368Z,5.18
2022-07-30T04:16:41.572Z,4.85
2022-07-30T04:21:34.685Z,4.90
2022-07-30T04:26:39.531Z,5.53
2022-07-30T04:31:45.249Z,6.20
2022-07-30T04:37:07.752Z,4.95
2022-07-30T04:42:12.827Z,5.10
2022-07-30T04:47:19.650Z,4.80
2022-07-30T04:57:53.522Z,5.13
2022-07-30T05:02:59.345Z,5.60
2022-07-30T05:08:03.771Z,5.13
2022-07-30T05:13:11.775Z,4.70
2022-07-30T05:18:19.226Z,5.05
2022-07-30T05:23:23.929Z,5.60
2022-07-30T05:28:48.463Z,5.57
2022-07-30T05:34:02.807Z,5.40
2022-07-30T05:39:14.174Z,5.40
2022-07-30T05:44:42.520Z,7.40
2022-07-30T05:49:47.864Z,4.85
2022-07-30T05:54:51.787Z,4.82
2022-07-30T06:00:02.279Z,6.47
2022-07-30T06:05:28.314Z,5.30
2022-07-30T06:10:36.071Z,5.22
2022-07-30T06:15:39.913Z,5.25
2022-07-30T06:20:45.081Z,5.18
2022-07-30T06:25:54.110Z,5.55
2022-07-30T06:30:58.184Z,4.80
2022-07-30T06:36:06.612Z,5.53
2022-07-30T06:41:21.922Z,4.78
2022-07-30T06:46:29.412Z,5.55
2022-07-30T06:51:34.608Z,5.40
2022-07-30T06:56:38.692Z,4.70
2022-07-30T07:01:44.896Z,4.78
2022-07-30T07:06:50.774Z,5.72
2022-07-30T07:12:03.742Z,4.70
2022-07-30T07:17:08.644Z,4.82
2022-07-30T07:22:32.409Z,5.45
2022-07-30T07:27:36.366Z,6.05
2022-07-30T07:32:40.439Z,6.20
2022-07-30T07:37:46.151Z,5.87
2022-07-30T07:42:56.898Z,5.95
2022-07-30T07:48:00.865Z,6.55
2022-07-30T07:53:32.193Z,5.80
2022-07-30T18:53:49.467Z,7.95
2022-07-30T18:58:53.294Z,8.45
2022-07-30T19:03:57.137Z,8.80
2022-07-30T19:09:02.205Z,7.60
2022-07-30T19:14:06.158Z,7.70
2022-07-30T19:19:12.907Z,8.00
2022-07-30T19:24:17.917Z,9.93
2022-07-30T19:29:21.672Z,7.70
2022-07-30T19:34:26.490Z,8.67
2022-07-30T19:39:31.875Z,7.05
2022-07-30T19:44:41.069Z,6.57
2022-07-30T19:49:44.905Z,5.32
2022-07-30T19:54:50.132Z,5.07
2022-07-30T20:00:00.198Z,4.80
2022-07-30T20:05:15.944Z,4.80
2022-07-30T20:10:21.150Z,4.78
2022-07-30T20:20:29.156Z,4.47
2022-07-30T20:25:36.968Z,4.80
2022-07-30T20:30:41.816Z,5.40
2022-07-30T20:35:46.015Z,4.10
2022-07-30T20:40:53.846Z,4.80
2022-07-30T20:45:58.484Z,4.82
2022-07-30T20:51:02.387Z,4.50
2022-07-30T20:56:09.326Z,4.72
2022-07-30T21:01:15.609Z,4.60
2022-07-30T21:06:22.401Z,4.88
2022-07-30T21:11:27.658Z,5.40
2022-07-30T21:16:33.948Z,4.90
2022-07-30T21:21:41.669Z,4.50
2022-07-30T21:26:53.999Z,4.95
2022-07-30T21:32:08.991Z,4.15
2022-07-30T21:37:15.640Z,4.07
2022-07-30T21:42:30.316Z,4.80
2022-07-30T21:47:34.303Z,4.45
2022-07-30T21:52:38.508Z,5.05
2022-07-30T21:57:43.526Z,4.85
2022-07-30T22:02:53.155Z,5.70
2022-07-30T22:07:57.879Z,6.70
2022-07-30T22:13:03.043Z,6.90
2022-07-30T22:18:08.016Z,6.05
2022-07-30T22:23:11.855Z,5.78
2022-07-30T22:28:17.706Z,6.43
2022-07-30T22:33:21.575Z,7.20
2022-07-30T22:38:27.195Z,6.70
2022-07-30T22:43:34.110Z,4.47
2022-07-30T22:48:44.781Z,3.97
2022-07-30T22:54:03.000Z,3.75
2022-07-30T22:59:13.680Z,3.00
2022-07-30T23:04:18.300Z,2.63
2022-07-30T23:09:22.212Z,2.40
2022-07-30T23:14:28.819Z,2.63
2022-07-30T23:19:32.887Z,2.53
2022-07-30T23:24:36.633Z,1.85
2022-07-30T23:29:41.617Z,2.45
2022-07-30T23:34:45.374Z,2.33
2022-07-30T23:39:49.054Z,2.35
2022-07-30T23:44:54.128Z,1.95
2022-07-30T23:49:58.756Z,2.50
2022-07-30T23:55:02.408Z,2.85
